Time;durP1;ratioP1;P1;durP2;ratioP2;P2;SDS_P1;SDS_P2;PMS_P1;PMS_P2;Temp;Humidity;BMP_temperature;BMP_pressure;BME280_temperature;BME280_humidity;BME280_pressure;Samples;Min_cycle;Max_cycle;Signal;HPM_P1;HPM_P2
2020/12/18 00:02:03;;;;;;;17.67;10.50;;;6.30;99.90;;;;;;5038187;28;20029;-67
2020/12/18 00:04:49;;;;;;;19.50;10.50;;;6.30;99.90;;;;;;5053555;28;20044;-67
2020/12/18 00:07:35;;;;;;;22.83;10.77;;;6.40;99.90;;;;;;5039010;28;20102;-67
2020/12/18 00:10:21;;;;;;;19.83;11.20;;;6.40;99.90;;;;;;5053847;28;20081;-67
2020/12/18 00:13:08;;;;;;;21.73;10.77;;;6.40;99.90;;;;;;5052667;28;20041;-67
2020/12/18 00:15:54;;;;;;;20.77;10.10;;;6.30;99.90;;;;;;5038630;28;20037;-67
2020/12/18 00:18:40;;;;;;;16.88;10.50;;;6.40;99.90;;;;;;5051418;28;20462;-67
2020/12/18 00:21:26;;;;;;;20.13;10.57;;;6.30;99.90;;;;;;5052047;28;20397;-67
2020/12/18 00:24:13;;;;;;;20.70;10.60;;;6.30;99.90;;;;;;5052484;28;20103;-66
2020/12/18 00:26:59;;;;;;;17.25;10.45;;;6.20;99.90;;;;;;5036909;28;20040;-67
2020/12/18 00:29:45;;;;;;;20.10;10.73;;;6.20;99.90;;;;;;5051985;28;20532;-66
2020/12/18 00:32:31;;;;;;;20.42;11.30;;;6.20;99.90;;;;;;5052778;28;20120;-66
2020/12/18 00:35:19;;;;;;;23.20;11.80;;;6.10;99.90;;;;;;5051289;28;20044;-67
2020/12/18 00:38:05;;;;;;;17.58;10.07;;;6.10;99.90;;;;;;5036950;28;20115;-66
2020/12/18 00:40:51;;;;;;;21.75;11.90;;;6.20;99.90;;;;;;5021982;28;20120;-67
2020/12/18 00:43:37;;;;;;;21.15;10.68;;;6.10;99.90;;;;;;5036675;28;20056;-67
2020/12/18 00:46:23;;;;;;;23.20;12.05;;;6.00;99.90;;;;;;5051187;28;20053;-67
2020/12/18 00:49:09;;;;;;;20.10;10.93;;;6.00;99.90;;;;;;5052669;28;20033;-67
2020/12/18 00:51:55;;;;;;;18.48;10.30;;;6.00;99.90;;;;;;5051881;28;20037;-67
2020/12/18 00:54:41;;;;;;;25.00;11.38;;;6.00;99.90;;;;;;5052514;28;20124;-67
2020/12/18 00:57:27;;;;;;;21.10;11.25;;;5.90;99.90;;;;;;5051651;28;20528;-67
2020/12/18 01:00:15;;;;;;;20.02;10.48;;;6.00;99.90;;;;;;5051164;28;20482;-67
2020/12/18 01:03:01;;;;;;;22.05;11.60;;;5.90;99.90;;;;;;5036184;28;20037;-68
2020/12/18 01:05:47;;;;;;;19.90;11.02;;;5.90;99.90;;;;;;5051186;28;20044;-68
2020/12/18 01:08:33;;;;;;;19.27;10.48;;;6.00;99.90;;;;;;5036924;28;20044;-68
2020/12/18 01:11:19;;;;;;;23.65;11.75;;;6.00;99.90;;;;;;5050940;28;20032;-66
2020/12/18 01:14:05;;;;;;;19.42;10.38;;;6.00;99.90;;;;;;5036779;28;20041;-67
2020/12/18 01:16:56;;;;;;;19.65;11.35;;;6.00;99.90;;;;;;5051597;28;20056;-67
2020/12/18 01:19:42;;;;;;;22.85;10.75;;;6.00;99.90;;;;;;5035931;28;20099;-68
2020/12/18 01:22:28;;;;;;;21.90;10.80;;;6.00;99.90;;;;;;5050582;28;20044;-67
2020/12/18 01:25:14;;;;;;;21.17;11.38;;;6.00;99.90;;;;;;5036569;28;20639;-67
2020/12/18 01:28:00;;;;;;;21.77;11.63;;;5.90;99.90;;;;;;5051369;28;20037;-68
2020/12/18 01:30:46;;;;;;;21.92;11.00;;;5.80;99.90;;;;;;5035655;28;20037;-67
2020/12/18 01:33:32;;;;;;;19.13;10.65;;;5.80;99.90;;;;;;5036043;28;20074;-67
2020/12/18 01:36:21;;;;;;;19.83;10.45;;;5.70;99.90;;;;;;5051433;28;20055;-68
2020/12/18 01:39:07;;;;;;;19.10;10.43;;;5.60;99.90;;;;;;5050344;28;20404;-67
2020/12/18 01:41:53;;;;;;;18.25;9.75;;;5.60;99.90;;;;;;5050744;28;20033;-67
2020/12/18 01:44:39;;;;;;;19.55;10.27;;;5.50;99.90;;;;;;5051238;28;20037;-68
2020/12/18 01:47:30;;;;;;;21.33;11.75;;;5.60;99.90;;;;;;5037010;28;20061;-67
2020/12/18 01:50:16;;;;;;;17.83;9.65;;;5.60;99.90;;;;;;5052222;28;20409;-68
2020/12/18 01:53:03;;;;;;;19.38;10.80;;;5.60;99.90;;;;;;5051274;28;20033;-67
2020/12/18 01:55:50;;;;;;;20.02;10.52;;;5.60;99.90;;;;;;5052397;28;20045;-67
2020/12/18 01:58:39;;;;;;;21.77;10.70;;;5.60;99.90;;;;;;5038138;28;20041;-68
2020/12/18 02:01:25;;;;;;;21.98;11.40;;;5.60;99.90;;;;;;5052301;28;20041;-67
2020/12/18 02:04:12;;;;;;;22.08;10.80;;;5.60;99.90;;;;;;5051698;28;20033;-67
2020/12/18 02:07:02;;;;;;;19.65;11.65;;;5.60;99.90;;;;;;5036670;28;20045;-67
2020/12/18 02:09:48;;;;;;;26.80;12.95;;;5.60;99.90;;;;;;5052201;28;20155;-67
2020/12/18 02:12:34;;;;;;;22.48;13.30;;;5.60;99.90;;;;;;5050645;28;20041;-67
2020/12/18 02:15:22;;;;;;;24.70;13.93;;;5.70;99.90;;;;;;5049641;28;20112;-67
2020/12/18 02:18:08;;;;;;;29.63;13.50;;;5.80;99.90;;;;;;5051075;28;20168;-67
2020/12/18 02:20:54;;;;;;;27.50;12.48;;;5.80;99.90;;;;;;5049374;28;20044;-68
2020/12/18 02:23:42;;;;;;;27.15;13.57;;;5.60;99.90;;;;;;5052331;28;20116;-67
2020/12/18 02:26:28;;;;;;;27.98;14.77;;;5.60;99.90;;;;;;5038796;28;20545;-67
2020/12/18 02:29:15;;;;;;;26.33;14.60;;;5.60;99.90;;;;;;5040490;28;20041;-67
2020/12/18 02:32:02;;;;;;;27.08;13.75;;;5.70;99.90;;;;;;5053710;28;20115;-68
2020/12/18 02:34:48;;;;;;;26.60;13.80;;;5.70;99.90;;;;;;5055005;28;20508;-67
2020/12/18 02:37:35;;;;;;;32.22;14.65;;;5.60;99.90;;;;;;5054510;28;20040;-67
2020/12/18 02:40:21;;;;;;;26.80;13.48;;;5.50;99.90;;;;;;5055049;28;20456;-67
2020/12/18 02:43:07;;;;;;;25.45;12.50;;;5.60;99.90;;;;;;5054914;28;20033;-67
2020/12/18 02:45:53;;;;;;;27.48;14.63;;;5.60;99.90;;;;;;5052783;28;20033;-67
2020/12/18 02:48:39;;;;;;;23.00;12.55;;;5.60;99.90;;;;;;5053912;28;20036;-67
2020/12/18 02:51:25;;;;;;;25.60;13.60;;;5.60;99.90;;;;;;5053742;28;20045;-67
2020/12/18 02:54:11;;;;;;;28.67;15.20;;;5.40;99.90;;;;;;5053858;28;20469;-67
2020/12/18 02:56:57;;;;;;;30.08;16.20;;;5.40;99.90;;;;;;5039852;28;20401;-68
2020/12/18 02:59:43;;;;;;;34.83;16.75;;;5.30;99.90;;;;;;5053971;28;20116;-67
2020/12/18 03:02:29;;;;;;;29.25;15.90;;;5.20;99.90;;;;;;5055196;28;20407;-67
2020/12/18 03:05:15;;;;;;;33.22;15.38;;;5.20;99.90;;;;;;5039451;28;20438;-67
2020/12/18 03:08:03;;;;;;;28.50;15.68;;;5.20;99.90;;;;;;5040044;28;20631;-67
2020/12/18 03:10:49;;;;;;;32.17;15.27;;;5.10;99.90;;;;;;5054434;28;20037;-67
2020/12/18 03:13:35;;;;;;;27.13;14.75;;;5.00;99.90;;;;;;5054444;28;20063;-67
2020/12/18 03:16:21;;;;;;;28.45;14.63;;;5.10;99.90;;;;;;5038277;28;20040;-67
2020/12/18 03:19:07;;;;;;;28.17;14.43;;;5.20;99.90;;;;;;5053227;28;20037;-67
2020/12/18 03:21:53;;;;;;;27.15;13.20;;;5.20;99.90;;;;;;5054128;28;20440;-67
2020/12/18 03:24:39;;;;;;;22.75;11.73;;;5.10;99.90;;;;;;5053574;28;20489;-67
2020/12/18 03:27:25;;;;;;;23.55;12.45;;;4.90;99.90;;;;;;5053529;28;20516;-67
2020/12/18 03:30:11;;;;;;;22.73;12.10;;;4.80;99.90;;;;;;5038440;28;20038;-67
2020/12/18 03:32:57;;;;;;;24.33;12.45;;;4.60;99.90;;;;;;5054497;28;20044;-67
2020/12/18 03:35:44;;;;;;;19.30;11.48;;;4.60;99.90;;;;;;5052750;28;20486;-67
2020/12/18 03:38:30;;;;;;;18.58;10.45;;;4.60;99.90;;;;;;5053710;28;20084;-67
2020/12/18 03:41:16;;;;;;;22.13;11.68;;;4.60;99.90;;;;;;5052974;28;20045;-67
2020/12/18 03:44:02;;;;;;;21.50;11.60;;;4.60;99.90;;;;;;5054274;28;20063;-67
2020/12/18 03:46:48;;;;;;;19.13;11.18;;;4.70;99.90;;;;;;5054647;28;20132;-67
2020/12/18 03:49:34;;;;;;;19.38;10.52;;;4.60;99.90;;;;;;5053824;28;20037;-67
2020/12/18 03:52:20;;;;;;;16.33;9.68;;;4.60;99.90;;;;;;5038885;28;20041;-67
2020/12/18 03:55:06;;;;;;;18.92;10.95;;;4.50;99.90;;;;;;5052811;28;20060;-67
2020/12/18 03:57:52;;;;;;;16.70;10.05;;;4.40;99.90;;;;;;5051994;28;20068;-68
2020/12/18 04:00:39;;;;;;;18.67;11.02;;;4.40;99.90;;;;;;5053508;28;20084;-66
2020/12/18 04:03:25;;;;;;;19.90;10.95;;;4.40;99.90;;;;;;5052193;28;20048;-66
2020/12/18 04:06:11;;;;;;;19.58;10.45;;;4.30;99.90;;;;;;5053307;28;20527;-66
2020/12/18 04:08:57;;;;;;;20.02;10.05;;;4.30;99.90;;;;;;5052512;28;20040;-66
2020/12/18 04:11:44;;;;;;;23.63;10.13;;;4.30;99.90;;;;;;5052739;28;20044;-66
2020/12/18 04:14:30;;;;;;;18.48;10.82;;;4.30;99.90;;;;;;5051991;28;20025;-66
2020/12/18 04:17:16;;;;;;;26.58;13.23;;;4.20;99.90;;;;;;5050497;28;20067;-66
2020/12/18 04:20:03;;;;;;;20.05;11.40;;;4.20;99.90;;;;;;5052527;28;20597;-66
2020/12/18 04:22:49;;;;;;;25.17;12.48;;;4.20;99.90;;;;;;5036348;28;20043;-66
2020/12/18 04:25:35;;;;;;;21.58;11.70;;;4.10;99.90;;;;;;5051741;28;20029;-66
2020/12/18 04:28:21;;;;;;;21.02;10.65;;;4.10;99.90;;;;;;5051678;28;20029;-66
2020/12/18 04:31:07;;;;;;;24.77;11.63;;;4.10;99.90;;;;;;5051636;28;20285;-66
2020/12/18 04:33:53;;;;;;;22.42;11.25;;;4.10;99.90;;;;;;5053360;28;20044;-66
2020/12/18 04:36:39;;;;;;;18.52;10.48;;;4.00;99.90;;;;;;5051127;28;20029;-67
2020/12/18 04:39:25;;;;;;;18.58;11.18;;;4.00;99.90;;;;;;5052272;28;20124;-67
2020/12/18 04:42:11;;;;;;;17.83;10.07;;;3.90;99.90;;;;;;5052630;28;20036;-67
2020/12/18 04:44:57;;;;;;;19.08;10.38;;;3.90;99.90;;;;;;5051266;28;20033;-67
2020/12/18 04:47:48;;;;;;;24.13;10.90;;;3.90;99.90;;;;;;5049263;28;20049;-66
2020/12/18 04:50:35;;;;;;;20.88;10.80;;;4.00;99.90;;;;;;5051328;28;20120;-66
2020/12/18 04:53:29;;;;;;;18.75;10.60;;;4.10;99.90;;;;;;5051344;28;20045;-67
2020/12/18 04:56:26;;;;;;;17.75;10.55;;;4.10;99.90;;;;;;5051648;28;20041;-66
2020/12/18 04:59:17;;;;;;;20.55;10.73;;;4.10;99.90;;;;;;5049922;28;20447;-66
2020/12/18 05:02:03;;;;;;;22.80;11.20;;;4.10;99.90;;;;;;5049410;28;20112;-66
2020/12/18 05:04:49;;;;;;;19.85;10.90;;;4.10;99.90;;;;;;5051843;28;20486;-66
2020/12/18 05:07:35;;;;;;;18.90;10.00;;;4.10;99.90;;;;;;5052048;28;20057;-66
2020/12/18 05:10:22;;;;;;;18.55;9.13;;;4.00;99.90;;;;;;5052079;28;20025;-66
2020/12/18 05:13:08;;;;;;;18.80;10.27;;;4.00;99.90;;;;;;5051371;28;20033;-61
2020/12/18 05:15:54;;;;;;;17.63;10.40;;;3.90;99.90;;;;;;5050328;28;20095;-67
2020/12/18 05:18:40;;;;;;;14.55;7.93;;;3.90;99.90;;;;;;5051540;28;20036;-67
2020/12/18 05:21:26;;;;;;;15.25;8.35;;;3.80;99.90;;;;;;5049938;28;20088;-66
2020/12/18 05:24:13;;;;;;;13.57;8.38;;;3.80;99.90;;;;;;5035654;28;20048;-63
2020/12/18 05:27:00;;;;;;;14.43;7.47;;;3.50;99.90;;;;;;5051967;28;20052;-67
2020/12/18 05:29:46;;;;;;;14.20;8.23;;;3.30;99.90;;;;;;5050422;28;20517;-63
2020/12/18 05:32:37;;;;;;;13.90;8.25;;;3.40;99.90;;;;;;5050122;28;20043;-58
2020/12/18 05:35:23;;;;;;;14.98;8.45;;;3.40;99.90;;;;;;5050634;28;20124;-57
2020/12/18 05:38:10;;;;;;;14.90;8.65;;;3.40;99.90;;;;;;5050828;28;20040;-57
2020/12/18 05:41:01;;;;;;;16.50;9.35;;;3.50;99.90;;;;;;5051750;28;20056;-56
2020/12/18 05:43:47;;;;;;;19.02;9.57;;;3.60;99.90;;;;;;5051316;28;20091;-57
2020/12/18 05:46:34;;;;;;;17.02;9.23;;;3.70;99.90;;;;;;5036737;28;20124;-61
2020/12/18 05:49:34;;;;;;;18.65;9.27;;;3.80;99.90;;;;;;5036002;28;20397;-58
2020/12/18 05:52:21;;;;;;;18.08;9.68;;;3.90;99.90;;;;;;5036773;28;20114;-57
2020/12/18 05:55:12;;;;;;;23.95;10.95;;;4.00;99.90;;;;;;5030944;28;20030;-59
2020/12/18 05:57:58;;;;;;;23.13;11.82;;;4.00;99.90;;;;;;5030641;28;20509;-59
2020/12/18 06:00:45;;;;;;;26.48;12.50;;;4.00;99.90;;;;;;5033816;28;20406;-58
2020/12/18 06:03:36;;;;;;;23.70;12.80;;;4.00;99.90;;;;;;5035687;28;20456;-55
2020/12/18 06:06:30;;;;;;;22.42;11.05;;;4.10;99.90;;;;;;5033094;28;20045;-57
2020/12/18 06:09:18;;;;;;;25.02;12.10;;;4.10;99.90;;;;;;5019698;28;20034;-56
2020/12/18 06:12:12;;;;;;;23.58;11.85;;;4.10;99.90;;;;;;5034386;28;20044;-57
2020/12/18 06:15:00;;;;;;;25.17;11.95;;;4.00;99.90;;;;;;5033935;28;20548;-60
2020/12/18 06:17:46;;;;;;;25.52;12.65;;;4.00;99.90;;;;;;5034906;28;20084;-60
2020/12/18 06:20:35;;;;;;;23.08;11.48;;;4.00;99.90;;;;;;5034411;28;20072;-60
2020/12/18 06:23:21;;;;;;;20.35;11.20;;;4.00;99.90;;;;;;5022503;28;20025;-59
2020/12/18 06:26:07;;;;;;;18.50;10.20;;;3.90;99.90;;;;;;5035239;28;20124;-60
2020/12/18 06:29:00;;;;;;;17.17;9.07;;;3.90;99.90;;;;;;5019448;28;20075;-61
2020/12/18 06:31:46;;;;;;;18.92;10.75;;;3.90;99.90;;;;;;5020346;28;20048;-60
2020/12/18 06:34:32;;;;;;;17.75;9.27;;;3.80;99.90;;;;;;5018275;28;20497;-60
2020/12/18 06:37:32;;;;;;;16.30;8.27;;;3.60;99.90;;;;;;5034370;28;20498;-59
2020/12/18 06:40:31;;;;;;;12.98;7.28;;;3.40;99.90;;;;;;5034237;28;20102;-60
2020/12/18 06:43:34;;;;;;;17.85;9.07;;;3.10;99.90;;;;;;5033631;28;20120;-59
2020/12/18 06:46:20;;;;;;;16.73;9.55;;;3.00;99.90;;;;;;5034208;28;20387;-61
2020/12/18 06:49:06;;;;;;;12.98;6.93;;;3.10;99.90;;;;;;5019635;28;20044;-61
2020/12/18 06:51:53;;;;;;;11.88;7.00;;;3.00;99.90;;;;;;5034234;28;20077;-61
2020/12/18 06:54:56;;;;;;;13.55;6.55;;;2.90;99.90;;;;;;5051332;28;20040;-56
2020/12/18 06:57:42;;;;;;;12.70;7.00;;;2.80;99.90;;;;;;5053820;28;20501;-58
2020/12/18 07:00:30;;;;;;;13.60;7.55;;;2.80;99.90;;;;;;5052124;28;20040;-58
2020/12/18 07:03:39;;;;;;;15.57;8.00;;;2.80;99.90;;;;;;5052995;28;20069;-59
2020/12/18 07:06:31;;;;;;;17.38;8.05;;;2.70;99.90;;;;;;5053123;28;20123;-59
2020/12/18 07:09:19;;;;;;;18.77;8.95;;;2.70;99.90;;;;;;5037859;28;20041;-60
2020/12/18 07:12:06;;;;;;;18.60;9.30;;;2.60;99.90;;;;;;5037597;28;20037;-60
2020/12/18 07:14:55;;;;;;;19.83;9.43;;;2.60;99.90;;;;;;5039054;28;20406;-59
2020/12/18 07:17:48;;;;;;;20.38;9.98;;;2.60;99.90;;;;;;5053408;28;20036;-58
2020/12/18 07:20:34;;;;;;;18.60;9.25;;;2.60;99.90;;;;;;5039809;28;20040;-58
2020/12/18 07:23:23;;;;;;;16.23;8.68;;;2.50;99.90;;;;;;5039335;28;20036;-59
2020/12/18 07:26:11;;;;;;;26.13;9.40;;;2.50;99.90;;;;;;5053215;28;20456;-59
2020/12/18 07:28:57;;;;;;;22.48;9.73;;;2.50;99.90;;;;;;5053530;28;20033;-58
2020/12/18 07:31:43;;;;;;;16.65;9.27;;;2.60;99.90;;;;;;5051818;28;20036;-59
2020/12/18 07:34:29;;;;;;;17.85;9.20;;;2.40;99.90;;;;;;5052903;28;20060;-59
2020/12/18 07:37:15;;;;;;;17.88;9.27;;;2.40;99.90;;;;;;5052282;28;20075;-60
2020/12/18 07:40:08;;;;;;;18.20;9.05;;;2.40;99.90;;;;;;5053198;28;20036;-60
2020/12/18 07:42:54;;;;;;;18.40;9.05;;;2.50;99.90;;;;;;5038255;28;20397;-60
2020/12/18 07:45:49;;;;;;;19.67;9.13;;;2.40;99.90;;;;;;5053156;28;20029;-60
2020/12/18 07:48:39;;;;;;;19.45;9.60;;;2.30;99.90;;;;;;5006901;28;20060;-61
2020/12/18 07:51:25;;;;;;;17.00;9.10;;;2.20;99.90;;;;;;5033597;28;20046;-60
2020/12/18 07:54:17;;;;;;;16.80;9.10;;;2.20;99.90;;;;;;5032851;28;20463;-60
2020/12/18 07:57:08;;;;;;;15.38;8.43;;;2.20;99.90;;;;;;5019321;28;20026;-60
2020/12/18 08:00:10;;;;;;;16.30;8.13;;;2.10;99.90;;;;;;5032915;28;20033;-60
2020/12/18 08:02:57;;;;;;;19.73;8.65;;;2.10;99.90;;;;;;5033542;28;20045;-60
2020/12/18 08:05:43;;;;;;;12.82;7.43;;;2.00;99.90;;;;;;5019314;28;20037;-58
2020/12/18 08:08:31;;;;;;;15.05;8.13;;;2.00;99.90;;;;;;5032170;28;20116;-59
2020/12/18 08:11:19;;;;;;;15.15;7.50;;;1.90;99.90;;;;;;5018089;28;20037;-58
2020/12/18 08:14:05;;;;;;;16.50;7.63;;;2.00;99.90;;;;;;5018400;28;21020;-60
2020/12/18 08:16:52;;;;;;;18.52;8.02;;;2.00;99.90;;;;;;5032256;28;20052;-59
2020/12/18 08:19:38;;;;;;;22.08;9.60;;;2.00;99.90;;;;;;5032267;28;20120;-58
2020/12/18 08:22:29;;;;;;;16.30;7.65;;;2.00;99.90;;;;;;5033297;28;20037;-59
2020/12/18 08:25:18;;;;;;;37.30;14.68;;;2.00;99.90;;;;;;5032658;28;20048;-59
2020/12/18 08:28:05;;;;;;;68.63;25.13;;;2.20;99.90;;;;;;5030994;28;20124;-56
2020/12/18 08:30:54;;;;;;;26.65;10.93;;;2.30;99.90;;;;;;5016195;28;20409;-56
2020/12/18 08:33:54;;;;;;;26.58;10.95;;;2.40;99.90;;;;;;5018254;28;20046;-57
2020/12/18 08:36:44;;;;;;;31.70;11.43;;;2.30;99.90;;;;;;5017100;28;20463;-57
2020/12/18 08:39:35;;;;;;;31.63;11.32;;;2.40;99.90;;;;;;5032118;28;20030;-56
2020/12/18 08:42:22;;;;;;;31.52;11.43;;;2.40;99.90;;;;;;5031821;28;20037;-59
2020/12/18 08:45:08;;;;;;;27.67;11.15;;;2.70;99.90;;;;;;5015851;28;20407;-59
2020/12/18 08:47:55;;;;;;;28.77;11.38;;;2.80;99.90;;;;;;5045404;28;20549;-59
2020/12/18 08:50:41;;;;;;;30.70;11.23;;;2.80;99.90;;;;;;5017424;28;20052;-58
2020/12/18 08:53:34;;;;;;;36.03;12.18;;;2.90;99.90;;;;;;5042936;28;20508;-58
2020/12/18 08:56:20;;;;;;;27.33;10.88;;;2.90;99.90;;;;;;5036820;28;20025;-58
2020/12/18 08:59:06;;;;;;;31.17;12.93;;;3.00;99.90;;;;;;5051010;28;20056;-59
2020/12/18 09:01:52;;;;;;;27.70;11.15;;;2.90;99.90;;;;;;5051134;28;20029;-59
2020/12/18 09:04:38;;;;;;;29.67;13.23;;;3.00;99.90;;;;;;5051384;28;20068;-57
2020/12/18 09:07:37;;;;;;;45.13;15.10;;;3.10;99.90;;;;;;5050808;28;20506;-58
2020/12/18 09:10:32;;;;;;;29.30;11.82;;;3.20;99.90;;;;;;5037254;28;20049;-60
2020/12/18 09:13:25;;;;;;;26.65;10.93;;;3.30;99.90;;;;;;5049658;28;20025;-60
2020/12/18 09:16:11;;;;;;;36.10;12.02;;;3.30;99.90;;;;;;5050318;28;20033;-58
2020/12/18 09:18:59;;;;;;;32.20;12.45;;;3.30;99.90;;;;;;5051735;28;20068;-58
2020/12/18 09:21:45;;;;;;;30.38;10.80;;;3.30;99.90;;;;;;5050850;28;20037;-59
2020/12/18 09:24:31;;;;;;;28.52;12.15;;;3.40;99.90;;;;;;5051349;28;20370;-60
2020/12/18 09:27:18;;;;;;;38.95;12.35;;;3.60;99.90;;;;;;5051278;28;20473;-59
2020/12/18 09:30:06;;;;;;;28.40;11.68;;;3.50;99.90;;;;;;5050960;28;20039;-60
2020/12/18 09:33:11;;;;;;;41.30;11.75;;;3.30;99.90;;;;;;5050585;28;20040;-58
2020/12/18 09:36:06;;;;;;;41.35;15.45;;;3.40;99.90;;;;;;5049973;28;20033;-58
2020/12/18 09:38:52;;;;;;;40.35;13.55;;;3.70;99.90;;;;;;5050276;28;20417;-59
2020/12/18 09:41:38;;;;;;;30.92;13.05;;;3.40;99.90;;;;;;5049284;28;20031;-58
2020/12/18 09:44:24;;;;;;;33.65;14.23;;;3.30;99.90;;;;;;5050399;28;20045;-59
2020/12/18 09:47:10;;;;;;;37.47;13.13;;;3.30;99.90;;;;;;5049560;28;20112;-60
2020/12/18 09:49:56;;;;;;;33.78;14.18;;;3.40;99.90;;;;;;5048973;28;20115;-59
2020/12/18 09:52:42;;;;;;;32.92;13.77;;;3.40;99.90;;;;;;5049988;28;20029;-59
2020/12/18 09:55:28;;;;;;;40.97;11.75;;;3.50;99.90;;;;;;5051014;28;20049;-59
2020/12/18 09:58:15;;;;;;;25.13;11.95;;;3.70;99.90;;;;;;5050588;28;20037;-59
2020/12/18 10:01:01;;;;;;;27.92;12.10;;;3.80;99.90;;;;;;5022091;28;20032;-60
2020/12/18 10:03:47;;;;;;;24.58;11.80;;;3.80;99.90;;;;;;5051063;28;20123;-60
2020/12/18 10:06:33;;;;;;;34.85;12.88;;;3.80;99.90;;;;;;5051954;28;20037;-58
2020/12/18 10:09:19;;;;;;;36.30;11.50;;;3.70;99.90;;;;;;5050787;28;20029;-58
2020/12/18 10:12:05;;;;;;;29.10;11.20;;;3.60;99.90;;;;;;5050515;28;20087;-57
2020/12/18 10:14:51;;;;;;;31.45;11.40;;;3.60;99.90;;;;;;5050912;28;20099;-60
2020/12/18 10:17:37;;;;;;;35.20;13.52;;;3.50;99.90;;;;;;5051291;28;20041;-61
2020/12/18 10:20:23;;;;;;;31.83;12.38;;;3.50;99.90;;;;;;5050758;28;20030;-58
2020/12/18 10:23:10;;;;;;;26.10;12.45;;;3.40;99.90;;;;;;5049823;28;20033;-59
2020/12/18 10:25:57;;;;;;;28.92;13.02;;;3.70;99.90;;;;;;5050965;28;20045;-58
2020/12/18 10:28:43;;;;;;;33.65;12.75;;;3.70;99.90;;;;;;5051396;28;20044;-60
2020/12/18 10:31:29;;;;;;;35.25;13.25;;;3.70;99.90;;;;;;5036335;28;20033;-59
2020/12/18 10:34:15;;;;;;;35.38;14.13;;;3.80;99.90;;;;;;5036796;28;20124;-58
2020/12/18 10:37:01;;;;;;;33.33;12.55;;;3.90;99.90;;;;;;5049578;28;20409;-63
2020/12/18 10:39:51;;;;;;;41.28;13.85;;;3.30;99.90;;;;;;5050536;28;20528;-57
2020/12/18 10:42:37;;;;;;;26.80;12.43;;;3.30;99.90;;;;;;5049208;28;20033;-57
2020/12/18 10:45:23;;;;;;;31.65;13.13;;;3.40;99.90;;;;;;5050666;28;20044;-57
2020/12/18 10:48:09;;;;;;;26.70;12.90;;;3.40;99.90;;;;;;5053927;28;20049;-58
2020/12/18 10:50:55;;;;;;;32.10;14.40;;;3.40;99.90;;;;;;5054667;28;20043;-57
2020/12/18 10:53:41;;;;;;;39.50;16.65;;;3.50;99.90;;;;;;5053052;28;20048;-58
2020/12/18 10:56:27;;;;;;;50.55;14.90;;;3.60;99.90;;;;;;5054425;28;20039;-59
2020/12/18 10:59:14;;;;;;;40.15;14.73;;;3.40;99.90;;;;;;5054298;28;20079;-57
2020/12/18 11:02:02;;;;;;;46.15;16.27;;;3.30;99.90;;;;;;5039594;28;20027;-56
2020/12/18 11:04:48;;;;;;;50.03;15.43;;;3.40;99.90;;;;;;5015891;28;20069;-53
2020/12/18 11:07:34;;;;;;;49.97;16.15;;;3.40;99.90;;;;;;4999740;28;20038;-57
2020/12/18 11:10:20;;;;;;;47.13;15.45;;;3.30;99.90;;;;;;5013789;28;20038;-56
2020/12/18 11:13:06;;;;;;;37.63;14.77;;;3.40;99.90;;;;;;5000083;28;20177;-57
2020/12/18 11:15:52;;;;;;;33.03;13.93;;;3.70;99.90;;;;;;5032539;28;20128;-56
2020/12/18 11:18:39;;;;;;;36.80;14.68;;;3.50;99.90;;;;;;5033534;28;20477;-57
2020/12/18 11:21:24;;;;;;;42.17;14.10;;;3.60;99.90;;;;;;5032399;28;20037;-54
2020/12/18 11:24:11;;;;;;;36.75;14.48;;;3.70;99.90;;;;;;5034239;28;20050;-56
2020/12/18 11:26:57;;;;;;;35.70;13.18;;;3.60;99.90;;;;;;5020117;28;20108;-56
2020/12/18 11:29:43;;;;;;;36.65;13.63;;;3.80;99.90;;;;;;5033480;28;20033;-56
2020/12/18 11:32:29;;;;;;;32.50;13.82;;;3.70;99.90;;;;;;5034483;28;20030;-54
2020/12/18 11:35:16;;;;;;;47.33;14.63;;;3.90;99.90;;;;;;5033119;28;20034;-56
2020/12/18 11:38:02;;;;;;;48.72;15.85;;;4.30;99.90;;;;;;5033492;28;20076;-58
2020/12/18 11:40:49;;;;;;;36.78;15.60;;;4.30;99.90;;;;;;5019068;28;20402;-58
2020/12/18 11:43:35;;;;;;;40.17;16.27;;;4.30;99.90;;;;;;5032264;28;20033;-58
2020/12/18 11:46:21;;;;;;;51.17;17.08;;;4.20;99.90;;;;;;5035431;28;20501;-59
2020/12/18 11:49:07;;;;;;;39.05;15.38;;;4.50;99.90;;;;;;5052430;28;20041;-58
2020/12/18 11:51:53;;;;;;;47.47;18.77;;;4.60;99.90;;;;;;5038117;28;20060;-58
2020/12/18 11:54:39;;;;;;;45.25;15.55;;;4.50;99.90;;;;;;5052501;28;20552;-58
2020/12/18 11:57:25;;;;;;;47.42;17.33;;;4.50;99.90;;;;;;5053067;28;20493;-55
2020/12/18 12:00:12;;;;;;;43.05;18.52;;;4.50;99.90;;;;;;5052310;28;20033;-56
2020/12/18 12:02:58;;;;;;;44.70;17.83;;;4.30;99.90;;;;;;5052641;28;20516;-56
2020/12/18 12:05:44;;;;;;;44.33;18.17;;;4.20;99.90;;;;;;5051872;28;20040;-57
2020/12/18 12:08:30;;;;;;;45.92;19.38;;;4.40;99.90;;;;;;5037097;28;20037;-56
2020/12/18 12:11:17;;;;;;;34.90;14.68;;;4.50;99.90;;;;;;5052573;28;20041;-57
2020/12/18 12:14:04;;;;;;;35.53;14.07;;;4.60;99.90;;;;;;5038250;28;20095;-58
2020/12/18 12:16:50;;;;;;;38.20;16.63;;;4.80;99.90;;;;;;5052137;28;20441;-57
2020/12/18 12:19:36;;;;;;;39.03;17.00;;;4.80;99.90;;;;;;5053362;28;20120;-58
2020/12/18 12:22:23;;;;;;;45.90;17.30;;;4.70;99.90;;;;;;5051648;28;20155;-56
2020/12/18 12:25:09;;;;;;;43.55;18.80;;;4.60;99.90;;;;;;5051812;28;20421;-58
2020/12/18 12:27:58;;;;;;;49.17;17.38;;;4.50;99.90;;;;;;5050153;28;20095;-57
2020/12/18 12:30:44;;;;;;;43.90;19.00;;;4.20;99.90;;;;;;5051786;28;20041;-57
2020/12/18 12:33:30;;;;;;;45.80;19.20;;;4.30;99.90;;;;;;5022597;28;20121;-57
2020/12/18 12:36:19;;;;;;;47.63;19.05;;;4.60;99.90;;;;;;5050428;28;20064;-57
2020/12/18 12:39:05;;;;;;;42.90;17.48;;;4.60;99.90;;;;;;5037858;28;20037;-55
2020/12/18 12:41:52;;;;;;;38.65;18.08;;;4.70;99.90;;;;;;5050580;28;20033;-58
2020/12/18 12:44:38;;;;;;;39.20;17.00;;;4.90;99.90;;;;;;5050419;28;20505;-55
2020/12/18 12:47:24;;;;;;;31.92;14.88;;;4.70;99.90;;;;;;5051620;28;20122;-57
2020/12/18 12:50:10;;;;;;;28.33;14.38;;;5.10;99.90;;;;;;5051270;28;20127;-57
2020/12/18 12:52:56;;;;;;;36.08;15.25;;;5.10;99.90;;;;;;5052411;28;20414;-56
2020/12/18 12:55:42;;;;;;;46.03;16.77;;;4.80;99.90;;;;;;5050104;28;20041;-56
2020/12/18 12:58:28;;;;;;;33.90;15.07;;;5.00;99.90;;;;;;5052791;28;20413;-58
2020/12/18 13:01:14;;;;;;;33.90;15.27;;;5.10;99.90;;;;;;5051662;28;20044;-57
2020/12/18 13:04:00;;;;;;;37.10;16.52;;;5.30;99.90;;;;;;5038870;28;20401;-56
2020/12/18 13:06:47;;;;;;;37.05;16.55;;;5.00;99.90;;;;;;5016862;28;20052;-56
2020/12/18 13:09:33;;;;;;;42.33;18.98;;;5.10;99.90;;;;;;5031569;28;20048;-57
2020/12/18 13:12:19;;;;;;;46.05;18.55;;;5.40;99.90;;;;;;5034205;28;20037;-57
2020/12/18 13:15:05;;;;;;;175.45;26.30;;;5.40;99.90;;;;;;5029841;28;20087;-55
2020/12/18 13:17:51;;;;;;;793.75;84.88;;;5.80;99.90;;;;;;5029574;28;20034;-57
2020/12/18 13:20:37;;;;;;;73.05;26.13;;;5.80;99.90;;;;;;5030423;28;20118;-57
2020/12/18 13:23:23;;;;;;;41.08;19.95;;;6.10;99.90;;;;;;5031299;28;20037;-58
2020/12/18 13:26:09;;;;;;;49.95;19.33;;;5.80;99.90;;;;;;5031802;28;20041;-57
2020/12/18 13:28:56;;;;;;;48.83;20.15;;;6.00;99.90;;;;;;5031135;28;20235;-58
2020/12/18 13:31:42;;;;;;;48.85;20.48;;;6.00;99.90;;;;;;5031195;28;20050;-53
2020/12/18 13:34:28;;;;;;;39.08;15.65;;;5.90;99.90;;;;;;5048263;28;20029;-57
2020/12/18 13:37:14;;;;;;;36.55;16.08;;;5.90;99.90;;;;;;5051141;28;20033;-57
2020/12/18 13:40:00;;;;;;;36.38;15.75;;;6.00;99.90;;;;;;5051790;28;20048;-56
2020/12/18 13:42:46;;;;;;;34.53;16.95;;;5.80;99.90;;;;;;5050164;28;20497;-56
2020/12/18 13:45:32;;;;;;;40.58;17.40;;;5.80;99.90;;;;;;5050569;28;20029;-57
2020/12/18 13:48:18;;;;;;;39.42;17.95;;;5.50;99.90;;;;;;5051589;28;20146;-58
2020/12/18 13:51:04;;;;;;;52.40;18.20;;;5.20;99.90;;;;;;5051604;28;20037;-53
2020/12/18 13:53:50;;;;;;;43.33;18.30;;;5.30;99.90;;;;;;5050342;28;20025;-57
2020/12/18 13:56:36;;;;;;;55.67;19.70;;;5.20;99.90;;;;;;5050742;28;20032;-57
2020/12/18 13:59:22;;;;;;;64.70;26.27;;;5.30;99.90;;;;;;5050760;28;20398;-57
2020/12/18 14:02:08;;;;;;;47.05;19.70;;;5.30;99.90;;;;;;5050491;28;20087;-57
2020/12/18 14:04:54;;;;;;;45.30;19.77;;;5.20;99.90;;;;;;5030210;28;20033;-56
2020/12/18 14:07:40;;;;;;;48.70;20.35;;;5.10;99.90;;;;;;5030610;28;20033;-57
2020/12/18 14:10:26;;;;;;;57.08;20.92;;;5.10;99.90;;;;;;5030183;28;20059;-56
2020/12/18 14:13:12;;;;;;;52.78;20.60;;;5.10;99.90;;;;;;5031648;28;20037;-55
2020/12/18 14:15:58;;;;;;;57.50;20.52;;;5.00;99.90;;;;;;5031851;28;20041;-57
2020/12/18 14:18:46;;;;;;;54.83;20.35;;;5.00;99.90;;;;;;5015166;28;20446;-60
2020/12/18 14:21:32;;;;;;;54.33;21.13;;;5.00;99.90;;;;;;5032097;28;20175;-57